Estación de Polizones INIA

Ultimos registro cada 15 minutos 43
Estación Fecha / Hora Temperatura Humedad Lluvia Velocidad Dirección Radiación Presion
43 Polizones INIA 04-05-2026 10:30 9,8 95,7 0 0,9 333 57 995
42 Polizones INIA 04-05-2026 10:15 9,7 95,7 0 0,6 336 78 996
41 Polizones INIA 04-05-2026 10:00 9,5 96,2 0 0,9 354 53 996
40 Polizones INIA 04-05-2026 09:45 9,5 96,2 0 0,8 5 48 996
39 Polizones INIA 04-05-2026 09:30 9,4 96,3 0 0,4 340 36 996
38 Polizones INIA 04-05-2026 09:15 9,2 96,6 0,1 0,8 347 41 996
37 Polizones INIA 04-05-2026 09:00 9,2 96,7 0,1 0,6 336 23 996
36 Polizones INIA 04-05-2026 08:45 9,1 96,8 0 0,3 344 10 996
35 Polizones INIA 04-05-2026 08:30 9,1 96,7 0 0,2 313 7 995
34 Polizones INIA 04-05-2026 08:15 9 96,9 0 0,6 337 5 995
33 Polizones INIA 04-05-2026 08:00 9 97 0 0,9 349 2 995
32 Polizones INIA 04-05-2026 07:45 8,9 97,2 0 0,9 355 0 995
31 Polizones INIA 04-05-2026 07:30 8,9 97,2 0 1 354 0 995
30 Polizones INIA 04-05-2026 07:15 8,8 97,4 0 0,6 356 0 995
29 Polizones INIA 04-05-2026 07:00 8,8 97,3 0 0,9 3 0 996
28 Polizones INIA 04-05-2026 06:45 8,8 97,4 0 0,4 353 0 996
27 Polizones INIA 04-05-2026 06:30 8,7 97,6 0 0,3 354 0 996
26 Polizones INIA 04-05-2026 06:15 8,7 97,5 0 0,1 348 0 996
25 Polizones INIA 04-05-2026 06:00 8,7 97,6 0 0 0 0 996
24 Polizones INIA 04-05-2026 05:45 8,7 97,6 0,3 0 0 0 996
23 Polizones INIA 04-05-2026 05:30 8,7 97,5 0 0 0 0 996
22 Polizones INIA 04-05-2026 05:15 8,7 97,5 0 0 0 0 996
21 Polizones INIA 04-05-2026 05:00 8,7 97,6 0,1 0,1 26 0 996
20 Polizones INIA 04-05-2026 04:45 8,6 97,7 0 0 0 0 996
19 Polizones INIA 04-05-2026 04:30 8,7 97,5 0 0 0 0 996
18 Polizones INIA 04-05-2026 04:15 8,8 97,6 0 0,1 328 0 996
17 Polizones INIA 04-05-2026 04:00 8,7 97,7 0,2 0 306 0 997
16 Polizones INIA 04-05-2026 03:45 8,7 97,7 0 0,2 0 0 997
15 Polizones INIA 04-05-2026 03:30 8,7 97,7 0 0,4 3 0 997
14 Polizones INIA 04-05-2026 03:15 8,7 97,8 0 0,4 19 0 997
13 Polizones INIA 04-05-2026 03:00 8,6 97,8 0 0 0 0 997
12 Polizones INIA 04-05-2026 02:45 8,5 97,9 0,1 0 0 0 997
11 Polizones INIA 04-05-2026 02:30 8,4 97,7 0 0 0 0 997
10 Polizones INIA 04-05-2026 02:15 8,4 97,8 0 0 0 0 997
9 Polizones INIA 04-05-2026 02:00 8,5 97,7 0 0 0 0 997
8 Polizones INIA 04-05-2026 01:45 8,3 97,9 0 0 0 0 998
7 Polizones INIA 04-05-2026 01:30 8,3 97,7 0 0 0 0 998
6 Polizones INIA 04-05-2026 01:15 8 97,6 0 0 0 0 998
5 Polizones INIA 04-05-2026 01:00 7,5 97,6 0 0 0 0 997
4 Polizones INIA 04-05-2026 00:45 7,7 97,2 0 0 0 0 998
3 Polizones INIA 04-05-2026 00:30 7,6 97,7 0 0 0 0 998
2 Polizones INIA 04-05-2026 00:15 8,1 96,6 0 0 0 0 998
1 Polizones INIA 04-05-2026 00:00 8,1 96,9 0 0 0 0 998